Terminal Aerodrome Forecast
Issued by NWS

Home | Current Version | Previous Version | Text Only | Print | Product List | Glossary On
Versions: 1 2 3 4 5 6 7 8 9 10 11 12 13 14 15 16 17 18
000
FTUS44 KCRP 240500
TAFALI
TAF
KALI 240535Z 2406/2506 14014KT P6SM BKN015
      TEMPO 2406/2409 SCT015
     FM240900 16009KT P6SM OVC008
     FM241500 16008KT P6SM BKN015
     FM241700 17009KT P6SM SCT025 BKN035
     FM242200 12011KT P6SM SCT040 BKN250
     FM250400 13004KT 5SM BR SCT008 BKN250=

USA.gov is the U.S. government's official web portal to all federal, state and local government web resources and services.